Flowood, Mississippi
Current Conditions -  °F | °C
As of 8:54 AM on Thursday 23 Oct 2014 (Local Time) from KJAN Reporting Station
Scattered Clouds Scattered Clouds  
Wind Chill: 53°   Ceiling: Unl
Heat Index: 53°   Visibility: 10mi
Dew Point: 46°   Wind: 6mph
Humidity: 77%   Direction: 60°ENE
Pressure: 30.18"   Gusts: NA
Location:  32.3087°N, 90.1392°W
Report Text: KJAN 231354Z 06005KT 10SM SCT250 12/08 A3018 RMK AO2 SLP219 T01170078
Loading
Personal Weather Stations






























Interactive Weather Map
Tropical Storm Tracking
New forecast layout! Learn more

10-Day Weather Forecast

Advertisements
Track Severe Weather on mobile